createdAt,value
2019-04-06T00:00:47.085Z,5.00
2019-04-06T00:05:10.125Z,5.00
2019-04-06T00:09:27.272Z,4.90
2019-04-06T00:13:45.409Z,4.80
2019-04-06T00:18:03.151Z,4.80
2019-04-06T00:22:19.880Z,4.70
2019-04-06T00:26:36.871Z,4.70
2019-04-06T00:30:55.298Z,4.70
2019-04-06T00:35:12.197Z,4.80
2019-04-06T00:39:28.798Z,4.90
2019-04-06T00:43:50.107Z,5.00
2019-04-06T00:48:06.864Z,5.10
2019-04-06T00:52:23.447Z,5.20
2019-04-06T00:56:39.945Z,5.30
2019-04-06T01:00:56.536Z,5.40
2019-04-06T01:05:13.354Z,5.50
2019-04-06T01:09:29.986Z,5.60
2019-04-06T01:13:46.539Z,5.70
2019-04-06T01:18:03.135Z,5.80
2019-04-06T01:22:19.725Z,5.80
2019-04-06T01:26:36.333Z,5.80
2019-04-06T01:30:52.970Z,5.90
2019-04-06T01:35:09.658Z,6.00
2019-04-06T01:39:26.133Z,6.00
2019-04-06T01:43:43.026Z,6.10
2019-04-06T01:48:00.160Z,6.10
2019-04-06T01:52:16.646Z,6.20
2019-04-06T01:56:33.134Z,6.30
2019-04-06T02:00:54.532Z,6.40
2019-04-06T02:05:11.296Z,6.40
2019-04-06T02:09:27.957Z,6.40
2019-04-06T02:13:44.443Z,6.40
2019-04-06T02:18:01.030Z,6.50
2019-04-06T02:22:17.602Z,6.50
2019-04-06T02:26:34.071Z,6.60
2019-04-06T02:30:59.843Z,6.50
2019-04-06T02:35:26.869Z,6.50
2019-04-06T02:39:54.103Z,6.40
2019-04-06T02:44:10.625Z,6.40
2019-04-06T02:48:27.173Z,6.40
2019-04-06T02:52:43.773Z,6.40
2019-04-06T02:57:00.248Z,6.30
2019-04-06T03:01:17.288Z,6.40
2019-04-06T03:05:34.347Z,6.20
2019-04-06T03:09:51.518Z,6.10
2019-04-06T03:14:08.200Z,6.00
2019-04-06T03:18:24.763Z,6.00
2019-04-06T03:22:41.248Z,6.00
2019-04-06T03:27:02.278Z,5.90
2019-04-06T03:31:16.393Z,5.70
2019-04-06T03:35:33.027Z,5.40
2019-04-06T03:39:49.556Z,5.10
2019-04-06T03:44:06.239Z,4.90
2019-04-06T03:48:22.748Z,4.80
2019-04-06T03:52:39.250Z,4.70
2019-04-06T03:56:55.978Z,4.50
2019-04-06T04:01:12.532Z,4.40
2019-04-06T04:05:28.979Z,4.50
2019-04-06T04:09:45.919Z,4.50
2019-04-06T04:14:02.817Z,4.60
2019-04-06T04:18:19.613Z,4.60
2019-04-06T04:22:36.522Z,4.50
2019-04-06T04:26:53.140Z,4.40
2019-04-06T04:31:09.754Z,4.30
2019-04-06T04:35:26.612Z,4.10
2019-04-06T04:39:43.172Z,4.10
2019-04-06T04:43:59.732Z,4.10
2019-04-06T04:48:16.312Z,4.10
2019-04-06T04:52:33.111Z,4.20
2019-04-06T04:56:49.716Z,4.20
2019-04-06T05:01:06.532Z,4.20
2019-04-06T05:05:25.826Z,4.20
2019-04-06T05:09:42.327Z,4.20
2019-04-06T05:14:55.206Z,4.30
2019-04-06T05:19:11.836Z,4.30
2019-04-06T05:23:28.325Z,4.40
2019-04-06T05:27:52.060Z,4.50
2019-04-06T05:32:03.571Z,4.60
2019-04-06T05:36:20.114Z,4.80
2019-04-06T05:40:36.747Z,5.00
2019-04-06T05:44:53.254Z,5.10
2019-04-06T05:49:09.738Z,5.30
2019-04-06T05:53:26.408Z,5.50
2019-04-06T05:57:43.124Z,5.60
2019-04-06T06:01:59.625Z,5.80
2019-04-06T06:06:16.244Z,5.90
2019-04-06T06:10:34.159Z,6.10
2019-04-06T06:14:50.897Z,6.20
2019-04-06T06:19:07.430Z,6.30
2019-04-06T06:23:24.552Z,6.50
2019-04-06T06:27:41.351Z,6.60
2019-04-06T06:31:58.394Z,6.70
2019-04-06T06:36:15.021Z,6.80
2019-04-06T06:40:31.530Z,6.80
2019-04-06T06:44:48.058Z,6.80
2019-04-06T06:49:04.595Z,6.90
2019-04-06T06:53:21.114Z,6.90
2019-04-06T06:57:37.732Z,7.10
2019-04-06T07:01:54.332Z,7.10
2019-04-06T07:06:11.198Z,7.20
2019-04-06T07:10:27.766Z,7.40
2019-04-06T07:14:45.586Z,7.50
2019-04-06T07:19:02.197Z,7.70
2019-04-06T07:23:32.446Z,7.90
2019-04-06T07:27:49.221Z,8.00
2019-04-06T07:32:05.700Z,8.30
2019-04-06T07:36:22.325Z,8.40
2019-04-06T07:40:38.799Z,8.60
2019-04-06T07:44:55.723Z,9.00
2019-04-06T07:49:12.244Z,9.30
2019-04-06T07:53:28.892Z,9.70
2019-04-06T07:57:45.425Z,10.00
2019-04-06T08:02:02.146Z,10.30
2019-04-06T08:06:18.765Z,10.50
2019-04-06T08:10:35.241Z,10.70
2019-04-06T08:14:51.900Z,10.80
2019-04-06T08:19:08.797Z,11.10
2019-04-06T08:23:25.325Z,11.40
2019-04-06T08:27:42.409Z,11.70
2019-04-06T08:31:59.086Z,12.00
2019-04-06T08:36:15.810Z,12.40
2019-04-06T08:40:32.424Z,12.70
2019-04-06T08:44:49.112Z,12.90
2019-04-06T08:49:05.759Z,13.20
2019-04-06T08:53:22.288Z,13.60
2019-04-06T08:57:39.083Z,14.00
2019-04-06T09:01:55.633Z,14.40
2019-04-06T09:06:12.224Z,14.50
2019-04-06T09:10:28.744Z,14.60
2019-04-06T09:14:45.340Z,14.90
2019-04-06T09:19:01.850Z,15.20
2019-04-06T09:23:18.488Z,15.40
2019-04-06T09:27:35.602Z,15.70
2019-04-06T09:31:52.236Z,16.00
2019-04-06T09:36:08.886Z,16.10
2019-04-06T09:40:27.678Z,16.40
2019-04-06T09:44:58.276Z,16.60
2019-04-06T09:49:25.868Z,17.00
2019-04-06T09:53:47.414Z,17.20
2019-04-06T09:58:22.411Z,17.00
2019-04-06T10:02:56.639Z,17.30
2019-04-06T10:07:32.235Z,17.80
2019-04-06T10:11:58.069Z,18.10
2019-04-06T10:16:33.207Z,18.10
2019-04-06T10:21:08.482Z,18.40
2019-04-06T10:25:44.048Z,18.50
2019-04-06T10:30:19.447Z,18.50
2019-04-06T10:34:51.028Z,18.90
2019-04-06T10:39:26.171Z,19.20
2019-04-06T10:43:45.627Z,19.20
2019-04-06T10:48:22.463Z,19.10
2019-04-06T10:52:57.783Z,19.50
2019-04-06T10:57:14.408Z,19.90
2019-04-06T11:01:41.436Z,20.20
2019-04-06T11:06:00.238Z,20.00
2019-04-06T11:10:17.021Z,20.30
2019-04-06T11:14:38.752Z,20.70
2019-04-06T11:19:13.863Z,21.20
2019-04-06T11:23:33.370Z,21.30
2019-04-06T11:27:51.947Z,21.10
2019-04-06T11:32:10.375Z,21.20
2019-04-06T11:36:46.980Z,21.40
2019-04-06T11:41:09.959Z,21.70
2019-04-06T11:45:28.497Z,21.40
2019-04-06T11:49:59.482Z,21.10
2019-04-06T11:54:27.890Z,21.50
2019-04-06T11:58:48.915Z,21.70
2019-04-06T12:03:05.686Z,21.80
2019-04-06T12:07:37.341Z,22.10
2019-04-06T12:12:01.781Z,22.60
2019-04-06T12:16:33.682Z,22.70
2019-04-06T12:20:58.154Z,22.70
2019-04-06T12:25:25.965Z,23.00
2019-04-06T12:30:01.123Z,23.50
2019-04-06T12:34:19.795Z,23.60
2019-04-06T12:38:38.305Z,23.80
2019-04-06T12:42:54.897Z,25.20
2019-04-06T12:47:31.748Z,25.90
2019-04-06T12:51:50.215Z,26.60
2019-04-06T12:56:08.679Z,27.00
2019-04-06T13:00:31.258Z,27.20
2019-04-06T13:04:47.725Z,27.80
2019-04-06T13:09:24.719Z,28.40
2019-04-06T13:13:55.643Z,29.30
2019-04-06T13:18:28.153Z,29.90
2019-04-06T13:22:56.520Z,30.30
2019-04-06T13:27:32.636Z,29.60
2019-04-06T13:32:04.648Z,27.70
2019-04-06T13:36:21.211Z,26.70
2019-04-06T13:40:41.563Z,24.80
2019-04-06T13:45:03.797Z,23.60
2019-04-06T13:49:25.179Z,23.10
2019-04-06T13:53:47.604Z,24.40
2019-04-06T13:58:14.974Z,27.10
2019-04-06T14:02:31.890Z,28.10
2019-04-06T14:06:53.615Z,28.40
2019-04-06T14:11:12.065Z,29.30
2019-04-06T14:15:37.584Z,27.00
2019-04-06T14:20:10.763Z,24.50
2019-04-06T14:24:44.435Z,22.80
2019-04-06T14:29:01.934Z,22.70
2019-04-06T14:33:32.962Z,22.70
2019-04-06T14:37:54.124Z,22.30
2019-04-06T14:42:12.758Z,21.90
2019-04-06T14:46:41.931Z,21.50
2019-04-06T14:51:04.766Z,21.10
2019-04-06T14:55:32.415Z,20.80
2019-04-06T14:59:52.064Z,20.70
2019-04-06T15:04:16.697Z,20.70
2019-04-06T15:08:42.349Z,20.50
2019-04-06T15:13:11.018Z,20.90
2019-04-06T15:17:31.058Z,21.30
2019-04-06T15:21:48.048Z,22.10
2019-04-06T15:26:13.342Z,23.60
2019-04-06T15:30:34.774Z,23.80
2019-04-06T15:34:55.343Z,23.40
2019-04-06T15:39:31.077Z,22.60
2019-04-06T15:44:06.085Z,21.60
2019-04-06T15:48:37.015Z,20.90
2019-04-06T15:52:50.422Z,20.50
2019-04-06T15:57:09.263Z,20.10
2019-04-06T16:01:43.411Z,19.70
2019-04-06T16:06:04.981Z,19.50
2019-04-06T16:10:39.405Z,19.30
2019-04-06T16:14:55.959Z,19.10
2019-04-06T16:19:14.404Z,19.00
2019-04-06T16:23:35.890Z,18.90
2019-04-06T16:27:56.840Z,18.70
2019-04-06T16:32:34.265Z,18.60
2019-04-06T16:36:55.598Z,18.50
2019-04-06T16:41:14.185Z,18.30
2019-04-06T16:45:43.415Z,18.20
2019-04-06T16:50:02.223Z,17.90
2019-04-06T16:54:30.381Z,17.70
2019-04-06T16:58:49.235Z,17.60
2019-04-06T17:03:06.723Z,17.50
2019-04-06T17:07:31.567Z,17.30
2019-04-06T17:12:06.547Z,17.20
2019-04-06T17:16:38.649Z,17.00
2019-04-06T17:20:58.901Z,16.90
2019-04-06T17:25:27.773Z,16.70
2019-04-06T17:29:55.572Z,16.50
2019-04-06T17:34:15.451Z,16.30
2019-04-06T17:38:38.417Z,16.10
2019-04-06T17:43:22.559Z,15.70
2019-04-06T17:47:42.871Z,15.40
2019-04-06T17:52:07.506Z,15.10
2019-04-06T17:56:24.382Z,14.80
2019-04-06T18:00:56.252Z,14.50
2019-04-06T18:05:12.988Z,14.20
2019-04-06T18:09:34.475Z,13.90
2019-04-06T18:13:52.545Z,13.60
2019-04-06T18:18:09.832Z,13.30
2019-04-06T18:22:26.710Z,13.00
2019-04-06T18:26:43.342Z,12.80
2019-04-06T18:31:20.248Z,12.60
2019-04-06T18:35:37.222Z,12.40
2019-04-06T18:39:55.796Z,12.30
2019-04-06T18:44:12.348Z,12.30
2019-04-06T18:48:29.278Z,12.40
2019-04-06T18:52:46.468Z,12.60
2019-04-06T18:57:03.517Z,12.80
2019-04-06T19:01:20.363Z,13.00
2019-04-06T19:05:37.098Z,13.00
2019-04-06T19:09:53.793Z,13.10
2019-04-06T19:14:11.125Z,13.00
2019-04-06T19:18:27.731Z,12.80
2019-04-06T19:22:46.796Z,12.60
2019-04-06T19:27:05.643Z,12.50
2019-04-06T19:31:23.702Z,12.30
2019-04-06T19:35:40.794Z,12.10
2019-04-06T19:39:58.085Z,11.90
2019-04-06T19:44:16.141Z,11.70
2019-04-06T19:48:32.652Z,11.60
2019-04-06T19:52:49.544Z,11.50
2019-04-06T19:57:06.215Z,11.40
2019-04-06T20:01:22.851Z,11.30
2019-04-06T20:05:40.141Z,11.30
2019-04-06T20:09:57.959Z,11.20
2019-04-06T20:14:14.913Z,11.10
2019-04-06T20:18:31.574Z,10.90
2019-04-06T20:22:48.150Z,10.80
2019-04-06T20:27:04.889Z,10.60
2019-04-06T20:31:21.430Z,10.50
2019-04-06T20:35:38.348Z,10.40
2019-04-06T20:39:55.769Z,10.30
2019-04-06T20:44:12.384Z,10.20
2019-04-06T20:48:29.380Z,10.10
2019-04-06T20:52:46.066Z,10.10
2019-04-06T20:57:03.305Z,10.00
2019-04-06T21:01:19.868Z,9.90
2019-04-06T21:05:36.388Z,9.90
2019-04-06T21:09:52.991Z,9.80
2019-04-06T21:14:10.031Z,9.70
2019-04-06T21:18:26.610Z,9.60
2019-04-06T21:22:43.680Z,9.60
2019-04-06T21:27:00.299Z,9.50
2019-04-06T21:31:16.740Z,9.40
2019-04-06T21:35:33.565Z,9.40
2019-04-06T21:39:50.121Z,9.30
2019-04-06T21:44:06.624Z,9.30
2019-04-06T21:48:23.175Z,9.30
2019-04-06T21:52:39.612Z,9.20
2019-04-06T21:56:56.047Z,9.20
2019-04-06T22:01:15.809Z,9.10
2019-04-06T22:05:32.952Z,9.00
2019-04-06T22:09:50.411Z,9.00
2019-04-06T22:14:07.041Z,8.90
2019-04-06T22:18:23.574Z,8.80
2019-04-06T22:22:40.453Z,8.80
2019-04-06T22:26:57.441Z,8.80
2019-04-06T22:31:14.247Z,8.70
2019-04-06T22:35:31.243Z,8.60
2019-04-06T22:39:47.997Z,8.50
2019-04-06T22:44:05.661Z,8.40
2019-04-06T22:48:25.346Z,8.40
2019-04-06T22:52:42.337Z,8.30
2019-04-06T22:56:59.118Z,8.20
2019-04-06T23:01:17.565Z,8.10
2019-04-06T23:05:34.012Z,8.10
2019-04-06T23:09:50.569Z,8.00
2019-04-06T23:14:07.416Z,8.00
2019-04-06T23:18:24.027Z,7.90
2019-04-06T23:22:40.911Z,7.80
2019-04-06T23:26:57.850Z,7.70
2019-04-06T23:31:14.828Z,7.60
2019-04-06T23:35:31.817Z,7.50
2019-04-06T23:39:48.291Z,7.30
2019-04-06T23:44:04.934Z,7.30
2019-04-06T23:48:21.946Z,7.10
2019-04-06T23:52:38.402Z,7.10
2019-04-06T23:56:54.877Z,7.00
